Warning: Javascript must be enabled to use all the features on this page!


Page Loading - Please Wait...

Click to hideNews Bulletins

Peak Streamflow for Minnesota

Click to hide state-specific text

NOTE: During winter months, stage and discharge may be significantly affected by backwater from ice, resulting in incorrect discharge data. Consequently, discharge data may not be displayed during periods of ice effect. Click here for more information.



USGS 05067050 MARSH RIVER DITCH NR ADA MN

Norman County, Minnesota
Hydrologic Unit Code 09020107
Latitude  47°17'46", Longitude  96°26'09" NAD27
Output formats
Table
Graph
Tab-separated file
peakfq (watstore) format
Reselect output format
Water
Year
Date Gage
Height
(feet)
Stream-
flow
(cfs)
1985 1985-05-13 15.42 630
1986 1986-03-28 15.32 600
1987 1987-03-10 14.89 0.002
1988 1988-03-26 11.92 43.0
1989 1989-04-06 16.742 1,070
1990 1990   0.002,Bm
1991 1991   0.002,Bm
1992 1992   0.002,Bm
1993 1993-07-27 14.442 140
1994 1994   0.002,Bm
1995 1995-03-15 13.392 78.0
1996 1996-04-14 17.391 950
1997 1997-04-03 19.381 0.002
1998 1998-03-01 15.85 0.002
1999 1999-03-29 13.11 0.002
2000 2000-06-22 15.952 294
2001 2001-04-08 17.161 1502
2002 2002-06-24 19.64 2,000
2003 2003-06-25 12.55 0.002
2004 2004-04-01 12.18 0.002
2005 2004-10-30 12.894 1954
2006 2006-03-31 19.391 5102
2007 2007-03-22 9.08 0.00
2008 2008-09-11 11.95 50.04
2009 2009-03-30 16.722 1,1002
2010 2010-03-16 18.991 1,3302
2011 2011-04-10 15.841 8002
2012 2012-03-15 9.68 0.00
2013 2013-04-29 15.01 535
2014 2014-04-10 15.411 5002
2015 2015-07-08 10.52 0.00
2016 2016-08-28 12.82 20.0
2017 2017-02-23 12.562 240
2018 2018-08-20 10.59 0.00
2019 2019-04-08 14.362 310
2020 2020-04-09 18.21 3502
2021 2021-04-11 10.88 0.00
?
  Peak Gage-Height Qualification Codes.
?
  Peak Streamflow Qualification Codes.